sensor_id;sensor_type;location;lat;lon;timestamp;P1;durP1;ratioP1;P2;durP2;ratioP2
4309;SDS011;2168;53.576;9.980;2022-10-31T00:00:16;28.60;;;16.60;;
4309;SDS011;2168;53.576;9.980;2022-10-31T00:02:41;26.93;;;15.30;;
4309;SDS011;2168;53.576;9.980;2022-10-31T00:05:06;25.03;;;15.83;;
4309;SDS011;2168;53.576;9.980;2022-10-31T00:07:31;31.57;;;17.17;;
4309;SDS011;2168;53.576;9.980;2022-10-31T00:09:57;32.33;;;16.77;;
4309;SDS011;2168;53.576;9.980;2022-10-31T00:12:22;30.83;;;16.30;;
4309;SDS011;2168;53.576;9.980;2022-10-31T00:14:47;27.73;;;16.00;;
4309;SDS011;2168;53.576;9.980;2022-10-31T00:17:12;27.13;;;16.03;;
4309;SDS011;2168;53.576;9.980;2022-10-31T00:19:37;33.77;;;17.17;;
4309;SDS011;2168;53.576;9.980;2022-10-31T00:22:02;29.47;;;16.63;;
4309;SDS011;2168;53.576;9.980;2022-10-31T00:24:27;31.50;;;17.33;;
4309;SDS011;2168;53.576;9.980;2022-10-31T00:26:53;29.33;;;17.50;;
4309;SDS011;2168;53.576;9.980;2022-10-31T00:29:18;36.60;;;18.60;;
4309;SDS011;2168;53.576;9.980;2022-10-31T00:31:43;34.07;;;18.23;;
4309;SDS011;2168;53.576;9.980;2022-10-31T00:34:08;29.13;;;17.60;;
4309;SDS011;2168;53.576;9.980;2022-10-31T00:36:33;28.90;;;17.43;;
4309;SDS011;2168;53.576;9.980;2022-10-31T00:38:58;27.80;;;17.50;;
4309;SDS011;2168;53.576;9.980;2022-10-31T00:41:24;32.93;;;18.10;;
4309;SDS011;2168;53.576;9.980;2022-10-31T00:43:49;33.07;;;17.87;;
4309;SDS011;2168;53.576;9.980;2022-10-31T00:46:14;33.97;;;17.90;;
4309;SDS011;2168;53.576;9.980;2022-10-31T00:48:40;30.00;;;17.13;;
4309;SDS011;2168;53.576;9.980;2022-10-31T00:51:05;28.93;;;17.50;;
4309;SDS011;2168;53.576;9.980;2022-10-31T00:53:30;38.47;;;19.13;;
4309;SDS011;2168;53.576;9.980;2022-10-31T00:55:56;29.67;;;17.70;;
4309;SDS011;2168;53.576;9.980;2022-10-31T00:58:21;21.30;;;16.90;;
4309;SDS011;2168;53.576;9.980;2022-10-31T01:00:47;34.73;;;17.67;;
4309;SDS011;2168;53.576;9.980;2022-10-31T01:03:19;33.93;;;17.40;;
4309;SDS011;2168;53.576;9.980;2022-10-31T01:05:45;28.87;;;17.43;;
4309;SDS011;2168;53.576;9.980;2022-10-31T01:08:10;32.97;;;17.60;;
4309;SDS011;2168;53.576;9.980;2022-10-31T01:10:35;33.97;;;19.07;;
4309;SDS011;2168;53.576;9.980;2022-10-31T01:13:00;36.00;;;19.80;;
4309;SDS011;2168;53.576;9.980;2022-10-31T01:15:25;32.03;;;18.30;;
4309;SDS011;2168;53.576;9.980;2022-10-31T01:17:50;43.93;;;22.57;;
4309;SDS011;2168;53.576;9.980;2022-10-31T01:20:16;32.40;;;18.87;;
4309;SDS011;2168;53.576;9.980;2022-10-31T01:22:41;34.37;;;20.80;;
4309;SDS011;2168;53.576;9.980;2022-10-31T01:25:07;35.23;;;19.10;;
4309;SDS011;2168;53.576;9.980;2022-10-31T01:27:32;34.27;;;19.43;;
4309;SDS011;2168;53.576;9.980;2022-10-31T01:29:57;33.33;;;19.83;;
4309;SDS011;2168;53.576;9.980;2022-10-31T01:32:23;29.60;;;20.50;;
4309;SDS011;2168;53.576;9.980;2022-10-31T01:34:48;33.73;;;20.70;;
4309;SDS011;2168;53.576;9.980;2022-10-31T01:37:13;36.43;;;20.40;;
4309;SDS011;2168;53.576;9.980;2022-10-31T01:39:38;35.13;;;20.37;;
4309;SDS011;2168;53.576;9.980;2022-10-31T01:42:03;35.33;;;20.53;;
4309;SDS011;2168;53.576;9.980;2022-10-31T01:47:28;43.20;;;22.70;;
4309;SDS011;2168;53.576;9.980;2022-10-31T01:49:49;37.00;;;21.33;;
4309;SDS011;2168;53.576;9.980;2022-10-31T01:52:24;31.33;;;20.83;;
4309;SDS011;2168;53.576;9.980;2022-10-31T01:55:35;46.03;;;22.30;;
4309;SDS011;2168;53.576;9.980;2022-10-31T01:57:35;40.50;;;21.50;;
4309;SDS011;2168;53.576;9.980;2022-10-31T02:00:04;33.13;;;20.97;;
4309;SDS011;2168;53.576;9.980;2022-10-31T02:02:30;37.30;;;21.53;;
4309;SDS011;2168;53.576;9.980;2022-10-31T02:04:56;36.93;;;22.13;;
4309;SDS011;2168;53.576;9.980;2022-10-31T02:07:27;35.23;;;21.30;;
4309;SDS011;2168;53.576;9.980;2022-10-31T02:09:53;43.23;;;21.40;;
4309;SDS011;2168;53.576;9.980;2022-10-31T02:12:18;36.97;;;22.50;;
4309;SDS011;2168;53.576;9.980;2022-10-31T02:14:44;50.57;;;24.67;;
4309;SDS011;2168;53.576;9.980;2022-10-31T02:17:09;37.80;;;22.77;;
4309;SDS011;2168;53.576;9.980;2022-10-31T02:22:57;43.73;;;22.27;;
4309;SDS011;2168;53.576;9.980;2022-10-31T02:27:39;43.30;;;22.87;;
4309;SDS011;2168;53.576;9.980;2022-10-31T02:30:16;42.70;;;24.03;;
4309;SDS011;2168;53.576;9.980;2022-10-31T02:32:45;45.80;;;24.60;;
4309;SDS011;2168;53.576;9.980;2022-10-31T02:40:34;44.73;;;23.27;;
4309;SDS011;2168;53.576;9.980;2022-10-31T02:46:03;40.83;;;24.43;;
4309;SDS011;2168;53.576;9.980;2022-10-31T02:48:31;37.87;;;23.00;;
4309;SDS011;2168;53.576;9.980;2022-10-31T02:51:00;50.77;;;24.90;;
4309;SDS011;2168;53.576;9.980;2022-10-31T02:53:26;47.97;;;26.33;;
4309;SDS011;2168;53.576;9.980;2022-10-31T02:55:57;51.07;;;24.00;;
4309;SDS011;2168;53.576;9.980;2022-10-31T02:58:24;45.10;;;25.07;;
4309;SDS011;2168;53.576;9.980;2022-10-31T03:06:27;44.03;;;24.17;;
4309;SDS011;2168;53.576;9.980;2022-10-31T03:11:24;50.40;;;24.97;;
4309;SDS011;2168;53.576;9.980;2022-10-31T03:18:57;47.13;;;24.77;;
4309;SDS011;2168;53.576;9.980;2022-10-31T03:21:25;50.90;;;26.57;;
4309;SDS011;2168;53.576;9.980;2022-10-31T03:23:51;56.57;;;27.33;;
4309;SDS011;2168;53.576;9.980;2022-10-31T03:26:19;42.13;;;25.60;;
4309;SDS011;2168;53.576;9.980;2022-10-31T03:28:46;44.07;;;25.70;;
4309;SDS011;2168;53.576;9.980;2022-10-31T03:31:13;50.83;;;25.17;;
4309;SDS011;2168;53.576;9.980;2022-10-31T03:33:41;56.57;;;26.23;;
4309;SDS011;2168;53.576;9.980;2022-10-31T03:36:07;55.40;;;27.00;;
4309;SDS011;2168;53.576;9.980;2022-10-31T03:38:33;50.43;;;27.40;;
4309;SDS011;2168;53.576;9.980;2022-10-31T03:41:00;51.27;;;26.23;;
4309;SDS011;2168;53.576;9.980;2022-10-31T03:43:28;48.87;;;26.67;;
4309;SDS011;2168;53.576;9.980;2022-10-31T03:45:54;50.20;;;27.10;;
4309;SDS011;2168;53.576;9.980;2022-10-31T03:48:19;54.20;;;26.47;;
4309;SDS011;2168;53.576;9.980;2022-10-31T03:53:19;56.08;;;26.45;;
4309;SDS011;2168;53.576;9.980;2022-10-31T03:55:49;47.03;;;26.63;;
4309;SDS011;2168;53.576;9.980;2022-10-31T03:58:19;53.13;;;27.20;;
4309;SDS011;2168;53.576;9.980;2022-10-31T04:00:46;52.50;;;27.50;;
4309;SDS011;2168;53.576;9.980;2022-10-31T04:03:32;59.43;;;27.87;;
4309;SDS011;2168;53.576;9.980;2022-10-31T04:06:00;59.80;;;27.50;;
4309;SDS011;2168;53.576;9.980;2022-10-31T04:08:28;57.97;;;27.50;;
4309;SDS011;2168;53.576;9.980;2022-10-31T04:10:54;70.13;;;29.10;;
4309;SDS011;2168;53.576;9.980;2022-10-31T04:13:22;55.03;;;27.67;;
4309;SDS011;2168;53.576;9.980;2022-10-31T04:15:49;55.20;;;27.63;;
4309;SDS011;2168;53.576;9.980;2022-10-31T04:18:15;61.10;;;30.60;;
4309;SDS011;2168;53.576;9.980;2022-10-31T04:20:41;63.87;;;29.67;;
4309;SDS011;2168;53.576;9.980;2022-10-31T04:23:19;62.80;;;28.83;;
4309;SDS011;2168;53.576;9.980;2022-10-31T04:25:45;72.07;;;29.47;;
4309;SDS011;2168;53.576;9.980;2022-10-31T04:28:10;62.50;;;30.03;;
4309;SDS011;2168;53.576;9.980;2022-10-31T04:30:35;66.73;;;29.87;;
4309;SDS011;2168;53.576;9.980;2022-10-31T04:33:00;63.80;;;29.20;;
4309;SDS011;2168;53.576;9.980;2022-10-31T04:35:26;64.10;;;30.40;;
4309;SDS011;2168;53.576;9.980;2022-10-31T04:37:51;66.87;;;29.70;;
4309;SDS011;2168;53.576;9.980;2022-10-31T04:40:16;59.80;;;29.23;;
4309;SDS011;2168;53.576;9.980;2022-10-31T04:42:41;67.43;;;29.57;;
4309;SDS011;2168;53.576;9.980;2022-10-31T04:45:06;73.37;;;30.40;;
4309;SDS011;2168;53.576;9.980;2022-10-31T04:47:32;63.70;;;29.33;;
4309;SDS011;2168;53.576;9.980;2022-10-31T04:49:58;71.87;;;30.90;;
4309;SDS011;2168;53.576;9.980;2022-10-31T04:52:23;64.50;;;30.13;;
4309;SDS011;2168;53.576;9.980;2022-10-31T04:54:48;61.93;;;28.43;;
4309;SDS011;2168;53.576;9.980;2022-10-31T04:57:13;56.27;;;27.87;;
4309;SDS011;2168;53.576;9.980;2022-10-31T04:59:38;68.20;;;30.30;;
4309;SDS011;2168;53.576;9.980;2022-10-31T05:02:04;59.60;;;28.30;;
4309;SDS011;2168;53.576;9.980;2022-10-31T05:04:29;68.07;;;29.43;;
4309;SDS011;2168;53.576;9.980;2022-10-31T05:06:54;66.37;;;29.33;;
4309;SDS011;2168;53.576;9.980;2022-10-31T05:09:19;56.00;;;27.60;;
4309;SDS011;2168;53.576;9.980;2022-10-31T05:11:44;72.50;;;30.43;;
4309;SDS011;2168;53.576;9.980;2022-10-31T05:14:10;68.37;;;29.00;;
4309;SDS011;2168;53.576;9.980;2022-10-31T05:16:35;50.73;;;27.50;;
4309;SDS011;2168;53.576;9.980;2022-10-31T05:19:00;60.50;;;27.07;;
4309;SDS011;2168;53.576;9.980;2022-10-31T05:21:25;62.10;;;28.03;;
4309;SDS011;2168;53.576;9.980;2022-10-31T05:23:50;57.33;;;25.27;;
4309;SDS011;2168;53.576;9.980;2022-10-31T05:26:17;62.63;;;29.60;;
4309;SDS011;2168;53.576;9.980;2022-10-31T05:28:42;56.80;;;26.60;;
4309;SDS011;2168;53.576;9.980;2022-10-31T05:31:12;61.10;;;27.63;;
4309;SDS011;2168;53.576;9.980;2022-10-31T05:33:37;58.93;;;26.33;;
4309;SDS011;2168;53.576;9.980;2022-10-31T05:36:03;56.47;;;26.80;;
4309;SDS011;2168;53.576;9.980;2022-10-31T05:38:28;53.37;;;27.27;;
4309;SDS011;2168;53.576;9.980;2022-10-31T05:40:56;50.30;;;26.87;;
4309;SDS011;2168;53.576;9.980;2022-10-31T05:43:27;55.33;;;26.77;;
4309;SDS011;2168;53.576;9.980;2022-10-31T05:45:53;56.23;;;27.27;;
4309;SDS011;2168;53.576;9.980;2022-10-31T05:48:18;62.17;;;28.67;;
4309;SDS011;2168;53.576;9.980;2022-10-31T05:50:43;64.77;;;26.90;;
4309;SDS011;2168;53.576;9.980;2022-10-31T05:53:09;55.70;;;25.20;;
4309;SDS011;2168;53.576;9.980;2022-10-31T05:55:34;56.33;;;25.17;;
4309;SDS011;2168;53.576;9.980;2022-10-31T05:58:00;67.10;;;26.10;;
4309;SDS011;2168;53.576;9.980;2022-10-31T06:00:25;57.87;;;26.60;;
4309;SDS011;2168;53.576;9.980;2022-10-31T06:03:00;56.23;;;24.80;;
4309;SDS011;2168;53.576;9.980;2022-10-31T06:05:26;68.57;;;26.10;;
4309;SDS011;2168;53.576;9.980;2022-10-31T06:07:51;59.53;;;27.00;;
4309;SDS011;2168;53.576;9.980;2022-10-31T06:10:16;59.93;;;26.80;;
4309;SDS011;2168;53.576;9.980;2022-10-31T06:12:41;66.00;;;27.57;;
4309;SDS011;2168;53.576;9.980;2022-10-31T06:15:07;53.80;;;25.53;;
4309;SDS011;2168;53.576;9.980;2022-10-31T06:17:33;53.87;;;25.70;;
4309;SDS011;2168;53.576;9.980;2022-10-31T06:19:58;64.80;;;27.17;;
4309;SDS011;2168;53.576;9.980;2022-10-31T06:22:23;55.70;;;24.73;;
4309;SDS011;2168;53.576;9.980;2022-10-31T06:24:49;57.30;;;25.57;;
4309;SDS011;2168;53.576;9.980;2022-10-31T06:27:14;68.70;;;27.70;;
4309;SDS011;2168;53.576;9.980;2022-10-31T06:29:39;46.70;;;24.80;;
4309;SDS011;2168;53.576;9.980;2022-10-31T06:32:04;56.13;;;24.30;;
4309;SDS011;2168;53.576;9.980;2022-10-31T06:34:29;43.80;;;22.53;;
4309;SDS011;2168;53.576;9.980;2022-10-31T06:36:54;44.67;;;24.57;;
4309;SDS011;2168;53.576;9.980;2022-10-31T06:39:20;44.20;;;23.97;;
4309;SDS011;2168;53.576;9.980;2022-10-31T06:41:46;58.20;;;25.90;;
4309;SDS011;2168;53.576;9.980;2022-10-31T06:44:12;52.90;;;25.07;;
4309;SDS011;2168;53.576;9.980;2022-10-31T06:46:37;60.97;;;28.20;;
4309;SDS011;2168;53.576;9.980;2022-10-31T06:49:02;61.50;;;28.67;;
4309;SDS011;2168;53.576;9.980;2022-10-31T06:51:27;52.40;;;26.40;;
4309;SDS011;2168;53.576;9.980;2022-10-31T06:53:53;50.80;;;26.00;;
4309;SDS011;2168;53.576;9.980;2022-10-31T06:56:18;54.97;;;26.33;;
4309;SDS011;2168;53.576;9.980;2022-10-31T06:58:43;63.47;;;28.87;;
4309;SDS011;2168;53.576;9.980;2022-10-31T07:01:08;54.23;;;25.00;;
4309;SDS011;2168;53.576;9.980;2022-10-31T07:03:33;47.07;;;24.33;;
4309;SDS011;2168;53.576;9.980;2022-10-31T07:05:59;50.17;;;23.00;;
4309;SDS011;2168;53.576;9.980;2022-10-31T07:08:24;52.27;;;24.87;;
4309;SDS011;2168;53.576;9.980;2022-10-31T07:10:53;44.53;;;23.30;;
4309;SDS011;2168;53.576;9.980;2022-10-31T07:13:19;40.80;;;23.40;;
4309;SDS011;2168;53.576;9.980;2022-10-31T07:15:49;42.07;;;21.93;;
4309;SDS011;2168;53.576;9.980;2022-10-31T07:18:15;45.83;;;19.93;;
4309;SDS011;2168;53.576;9.980;2022-10-31T07:20:40;42.23;;;21.90;;
4309;SDS011;2168;53.576;9.980;2022-10-31T07:23:05;65.47;;;21.20;;
4309;SDS011;2168;53.576;9.980;2022-10-31T07:25:30;109.77;;;21.27;;
4309;SDS011;2168;53.576;9.980;2022-10-31T07:27:56;108.27;;;24.07;;
4309;SDS011;2168;53.576;9.980;2022-10-31T07:30:21;108.33;;;22.20;;
4309;SDS011;2168;53.576;9.980;2022-10-31T07:32:47;57.93;;;20.70;;
4309;SDS011;2168;53.576;9.980;2022-10-31T07:35:13;63.63;;;20.27;;
4309;SDS011;2168;53.576;9.980;2022-10-31T07:37:39;39.73;;;20.60;;
4309;SDS011;2168;53.576;9.980;2022-10-31T07:40:04;97.53;;;22.33;;
4309;SDS011;2168;53.576;9.980;2022-10-31T07:42:40;35.70;;;21.00;;
4309;SDS011;2168;53.576;9.980;2022-10-31T07:45:06;66.67;;;21.27;;
4309;SDS011;2168;53.576;9.980;2022-10-31T07:47:41;39.77;;;21.07;;
4309;SDS011;2168;53.576;9.980;2022-10-31T07:50:08;35.43;;;19.97;;
4309;SDS011;2168;53.576;9.980;2022-10-31T07:52:33;46.80;;;21.03;;
4309;SDS011;2168;53.576;9.980;2022-10-31T07:54:58;109.10;;;22.23;;
4309;SDS011;2168;53.576;9.980;2022-10-31T07:57:24;117.53;;;20.90;;
4309;SDS011;2168;53.576;9.980;2022-10-31T07:59:49;60.93;;;18.63;;
4309;SDS011;2168;53.576;9.980;2022-10-31T08:02:14;49.40;;;16.77;;
4309;SDS011;2168;53.576;9.980;2022-10-31T08:04:39;29.27;;;18.37;;
4309;SDS011;2168;53.576;9.980;2022-10-31T08:07:04;24.17;;;16.77;;
4309;SDS011;2168;53.576;9.980;2022-10-31T08:09:30;25.50;;;17.03;;
4309;SDS011;2168;53.576;9.980;2022-10-31T08:11:55;35.00;;;16.37;;
4309;SDS011;2168;53.576;9.980;2022-10-31T08:14:20;38.27;;;15.87;;
4309;SDS011;2168;53.576;9.980;2022-10-31T08:16:46;60.53;;;15.50;;
4309;SDS011;2168;53.576;9.980;2022-10-31T08:19:11;22.37;;;15.53;;
4309;SDS011;2168;53.576;9.980;2022-10-31T08:21:36;34.80;;;16.03;;
4309;SDS011;2168;53.576;9.980;2022-10-31T08:24:01;24.00;;;16.60;;
4309;SDS011;2168;53.576;9.980;2022-10-31T08:26:26;32.73;;;14.63;;
4309;SDS011;2168;53.576;9.980;2022-10-31T08:28:51;25.77;;;15.90;;
4309;SDS011;2168;53.576;9.980;2022-10-31T08:31:19;45.70;;;16.43;;
4309;SDS011;2168;53.576;9.980;2022-10-31T08:33:44;28.40;;;15.57;;
4309;SDS011;2168;53.576;9.980;2022-10-31T08:36:09;33.20;;;15.17;;
4309;SDS011;2168;53.576;9.980;2022-10-31T08:38:35;23.83;;;15.57;;
4309;SDS011;2168;53.576;9.980;2022-10-31T08:41:00;21.53;;;14.27;;
4309;SDS011;2168;53.576;9.980;2022-10-31T08:43:25;22.50;;;15.10;;
4309;SDS011;2168;53.576;9.980;2022-10-31T08:45:50;22.60;;;13.27;;
4309;SDS011;2168;53.576;9.980;2022-10-31T08:48:16;21.63;;;13.80;;
4309;SDS011;2168;53.576;9.980;2022-10-31T08:50:42;22.37;;;14.00;;
4309;SDS011;2168;53.576;9.980;2022-10-31T08:53:12;21.50;;;14.10;;
4309;SDS011;2168;53.576;9.980;2022-10-31T08:55:39;26.97;;;14.40;;
4309;SDS011;2168;53.576;9.980;2022-10-31T08:58:05;22.27;;;14.80;;
4309;SDS011;2168;53.576;9.980;2022-10-31T09:00:31;19.80;;;14.80;;
4309;SDS011;2168;53.576;9.980;2022-10-31T09:03:04;19.03;;;13.60;;
4309;SDS011;2168;53.576;9.980;2022-10-31T09:05:30;19.17;;;14.80;;
4309;SDS011;2168;53.576;9.980;2022-10-31T09:07:59;28.37;;;15.40;;
4309;SDS011;2168;53.576;9.980;2022-10-31T09:10:25;23.13;;;14.47;;
4309;SDS011;2168;53.576;9.980;2022-10-31T09:12:57;23.13;;;13.83;;
4309;SDS011;2168;53.576;9.980;2022-10-31T09:15:23;23.37;;;14.37;;
4309;SDS011;2168;53.576;9.980;2022-10-31T09:17:49;24.30;;;14.20;;
4309;SDS011;2168;53.576;9.980;2022-10-31T09:20:14;21.77;;;14.50;;
4309;SDS011;2168;53.576;9.980;2022-10-31T09:22:39;22.27;;;15.77;;
4309;SDS011;2168;53.576;9.980;2022-10-31T09:25:04;23.47;;;15.40;;
4309;SDS011;2168;53.576;9.980;2022-10-31T09:27:30;24.50;;;16.10;;
4309;SDS011;2168;53.576;9.980;2022-10-31T09:29:55;22.83;;;15.37;;
4309;SDS011;2168;53.576;9.980;2022-10-31T09:32:20;21.20;;;14.57;;
4309;SDS011;2168;53.576;9.980;2022-10-31T09:34:45;24.67;;;15.77;;
4309;SDS011;2168;53.576;9.980;2022-10-31T09:37:11;27.50;;;15.57;;
4309;SDS011;2168;53.576;9.980;2022-10-31T09:39:36;28.00;;;15.80;;
4309;SDS011;2168;53.576;9.980;2022-10-31T09:42:03;27.83;;;17.17;;
4309;SDS011;2168;53.576;9.980;2022-10-31T09:44:52;23.67;;;16.00;;
4309;SDS011;2168;53.576;9.980;2022-10-31T09:49:58;28.03;;;16.53;;
4309;SDS011;2168;53.576;9.980;2022-10-31T09:52:26;28.60;;;17.37;;
4309;SDS011;2168;53.576;9.980;2022-10-31T09:55:02;32.43;;;16.80;;
4309;SDS011;2168;53.576;9.980;2022-10-31T09:57:29;25.00;;;15.20;;
4309;SDS011;2168;53.576;9.980;2022-10-31T09:59:56;24.50;;;16.80;;
4309;SDS011;2168;53.576;9.980;2022-10-31T10:02:32;24.00;;;15.23;;
4309;SDS011;2168;53.576;9.980;2022-10-31T10:05:01;27.50;;;14.13;;
4309;SDS011;2168;53.576;9.980;2022-10-31T10:09:55;27.57;;;17.60;;
4309;SDS011;2168;53.576;9.980;2022-10-31T10:12:28;25.50;;;16.40;;
4309;SDS011;2168;53.576;9.980;2022-10-31T10:17:46;29.07;;;17.40;;
4309;SDS011;2168;53.576;9.980;2022-10-31T10:20:18;25.70;;;17.40;;
4309;SDS011;2168;53.576;9.980;2022-10-31T10:25:28;28.17;;;16.87;;
4309;SDS011;2168;53.576;9.980;2022-10-31T10:30:45;30.60;;;17.43;;
4309;SDS011;2168;53.576;9.980;2022-10-31T10:33:12;25.80;;;17.07;;
4309;SDS011;2168;53.576;9.980;2022-10-31T10:38:48;23.53;;;14.30;;
4309;SDS011;2168;53.576;9.980;2022-10-31T10:41:16;23.10;;;14.50;;
4309;SDS011;2168;53.576;9.980;2022-10-31T10:43:42;20.00;;;13.03;;
4309;SDS011;2168;53.576;9.980;2022-10-31T10:56:41;23.87;;;13.70;;
4309;SDS011;2168;53.576;9.980;2022-10-31T10:59:11;21.43;;;13.03;;
4309;SDS011;2168;53.576;9.980;2022-10-31T11:01:38;17.07;;;11.40;;
4309;SDS011;2168;53.576;9.980;2022-10-31T11:04:05;17.00;;;11.20;;
4309;SDS011;2168;53.576;9.980;2022-10-31T11:06:36;24.90;;;12.07;;
4309;SDS011;2168;53.576;9.980;2022-10-31T11:09:08;16.07;;;10.90;;
4309;SDS011;2168;53.576;9.980;2022-10-31T11:11:33;15.70;;;11.10;;
4309;SDS011;2168;53.576;9.980;2022-10-31T11:14:03;17.07;;;11.30;;
4309;SDS011;2168;53.576;9.980;2022-10-31T11:16:31;26.13;;;12.73;;
4309;SDS011;2168;53.576;9.980;2022-10-31T11:19:07;20.40;;;12.37;;
4309;SDS011;2168;53.576;9.980;2022-10-31T11:21:33;20.90;;;12.97;;
4309;SDS011;2168;53.576;9.980;2022-10-31T11:24:03;19.40;;;13.90;;
4309;SDS011;2168;53.576;9.980;2022-10-31T11:26:28;29.40;;;14.67;;
4309;SDS011;2168;53.576;9.980;2022-10-31T11:28:57;24.43;;;16.60;;
4309;SDS011;2168;53.576;9.980;2022-10-31T11:31:23;31.13;;;17.27;;
4309;SDS011;2168;53.576;9.980;2022-10-31T11:33:49;27.23;;;18.20;;
4309;SDS011;2168;53.576;9.980;2022-10-31T11:36:21;26.90;;;17.10;;
4309;SDS011;2168;53.576;9.980;2022-10-31T11:38:47;28.67;;;18.83;;
4309;SDS011;2168;53.576;9.980;2022-10-31T11:41:14;31.47;;;21.10;;
4309;SDS011;2168;53.576;9.980;2022-10-31T11:43:49;29.80;;;21.07;;
4309;SDS011;2168;53.576;9.980;2022-10-31T11:46:17;37.83;;;22.30;;
4309;SDS011;2168;53.576;9.980;2022-10-31T11:48:46;46.00;;;27.70;;
4309;SDS011;2168;53.576;9.980;2022-10-31T11:51:11;35.03;;;22.23;;
4309;SDS011;2168;53.576;9.980;2022-10-31T11:53:37;35.23;;;24.30;;
4309;SDS011;2168;53.576;9.980;2022-10-31T11:56:23;35.77;;;23.40;;
4309;SDS011;2168;53.576;9.980;2022-10-31T11:58:54;45.83;;;24.17;;
4309;SDS011;2168;53.576;9.980;2022-10-31T12:01:24;41.17;;;24.10;;
4309;SDS011;2168;53.576;9.980;2022-10-31T12:04:02;39.00;;;24.50;;
4309;SDS011;2168;53.576;9.980;2022-10-31T12:06:31;43.33;;;23.80;;
4309;SDS011;2168;53.576;9.980;2022-10-31T12:08:57;38.20;;;24.17;;
4309;SDS011;2168;53.576;9.980;2022-10-31T12:14:08;45.00;;;24.27;;
4309;SDS011;2168;53.576;9.980;2022-10-31T12:16:40;44.67;;;25.73;;
4309;SDS011;2168;53.576;9.980;2022-10-31T12:24:44;36.03;;;22.77;;
4309;SDS011;2168;53.576;9.980;2022-10-31T12:35:15;43.73;;;25.93;;
4309;SDS011;2168;53.576;9.980;2022-10-31T12:37:52;52.03;;;25.07;;
4309;SDS011;2168;53.576;9.980;2022-10-31T12:45:15;53.09;;;28.31;;
4309;SDS011;2168;53.576;9.980;2022-10-31T12:47:58;48.73;;;26.70;;
4309;SDS011;2168;53.576;9.980;2022-10-31T12:52:56;58.40;;;28.50;;
4309;SDS011;2168;53.576;9.980;2022-10-31T12:55:36;43.27;;;26.47;;
4309;SDS011;2168;53.576;9.980;2022-10-31T12:58:04;44.93;;;26.53;;
4309;SDS011;2168;53.576;9.980;2022-10-31T13:00:34;47.27;;;25.83;;
4309;SDS011;2168;53.576;9.980;2022-10-31T13:03:17;49.60;;;25.43;;
4309;SDS011;2168;53.576;9.980;2022-10-31T13:05:48;38.43;;;23.60;;
4309;SDS011;2168;53.576;9.980;2022-10-31T13:08:17;37.70;;;21.93;;
4309;SDS011;2168;53.576;9.980;2022-10-31T13:11:02;42.77;;;22.60;;
4309;SDS011;2168;53.576;9.980;2022-10-31T13:13:35;36.23;;;21.57;;
4309;SDS011;2168;53.576;9.980;2022-10-31T13:16:09;42.73;;;21.83;;
4309;SDS011;2168;53.576;9.980;2022-10-31T13:18:52;52.37;;;22.67;;
4309;SDS011;2168;53.576;9.980;2022-10-31T13:21:21;34.70;;;21.03;;
4309;SDS011;2168;53.576;9.980;2022-10-31T13:23:48;37.70;;;22.13;;
4309;SDS011;2168;53.576;9.980;2022-10-31T13:26:27;30.00;;;18.50;;
4309;SDS011;2168;53.576;9.980;2022-10-31T13:31:53;28.10;;;18.00;;
4309;SDS011;2168;53.576;9.980;2022-10-31T13:34:38;30.77;;;17.63;;
4309;SDS011;2168;53.576;9.980;2022-10-31T13:37:14;25.87;;;17.47;;
4309;SDS011;2168;53.576;9.980;2022-10-31T13:42:23;27.63;;;16.87;;
4309;SDS011;2168;53.576;9.980;2022-10-31T13:44:50;25.40;;;17.00;;
4309;SDS011;2168;53.576;9.980;2022-10-31T13:47:23;26.50;;;16.80;;
4309;SDS011;2168;53.576;9.980;2022-10-31T13:49:49;23.40;;;16.57;;
4309;SDS011;2168;53.576;9.980;2022-10-31T13:52:15;31.97;;;17.90;;
4309;SDS011;2168;53.576;9.980;2022-10-31T13:54:45;20.13;;;14.10;;
4309;SDS011;2168;53.576;9.980;2022-10-31T13:57:22;21.50;;;14.80;;
4309;SDS011;2168;53.576;9.980;2022-10-31T13:59:50;23.30;;;15.00;;
4309;SDS011;2168;53.576;9.980;2022-10-31T14:02:17;17.93;;;13.30;;
4309;SDS011;2168;53.576;9.980;2022-10-31T14:04:49;22.03;;;14.03;;
4309;SDS011;2168;53.576;9.980;2022-10-31T14:07:17;16.87;;;13.10;;
4309;SDS011;2168;53.576;9.980;2022-10-31T14:12:27;18.73;;;12.17;;
4309;SDS011;2168;53.576;9.980;2022-10-31T14:14:58;20.00;;;13.13;;
4309;SDS011;2168;53.576;9.980;2022-10-31T14:17:25;18.27;;;12.53;;
4309;SDS011;2168;53.576;9.980;2022-10-31T14:20:19;20.03;;;13.90;;
4309;SDS011;2168;53.576;9.980;2022-10-31T14:22:46;22.73;;;13.13;;
4309;SDS011;2168;53.576;9.980;2022-10-31T14:28:19;18.20;;;11.80;;
4309;SDS011;2168;53.576;9.980;2022-10-31T14:30:55;16.77;;;11.37;;
4309;SDS011;2168;53.576;9.980;2022-10-31T14:33:20;16.73;;;11.83;;
4309;SDS011;2168;53.576;9.980;2022-10-31T14:35:51;17.70;;;12.10;;
4309;SDS011;2168;53.576;9.980;2022-10-31T14:41:00;17.90;;;12.50;;
4309;SDS011;2168;53.576;9.980;2022-10-31T14:51:16;18.67;;;12.37;;
4309;SDS011;2168;53.576;9.980;2022-10-31T14:53:47;20.93;;;12.47;;
4309;SDS011;2168;53.576;9.980;2022-10-31T14:56:14;19.63;;;13.73;;
4309;SDS011;2168;53.576;9.980;2022-10-31T14:58:42;21.33;;;13.40;;
4309;SDS011;2168;53.576;9.980;2022-10-31T15:01:17;21.23;;;13.13;;
4309;SDS011;2168;53.576;9.980;2022-10-31T15:03:44;24.50;;;13.43;;
4309;SDS011;2168;53.576;9.980;2022-10-31T15:06:10;20.63;;;13.07;;
4309;SDS011;2168;53.576;9.980;2022-10-31T15:08:50;18.97;;;13.07;;
4309;SDS011;2168;53.576;9.980;2022-10-31T15:11:19;23.73;;;15.03;;
4309;SDS011;2168;53.576;9.980;2022-10-31T15:13:46;23.03;;;13.40;;
4309;SDS011;2168;53.576;9.980;2022-10-31T15:16:13;23.83;;;14.60;;
4309;SDS011;2168;53.576;9.980;2022-10-31T15:18:40;24.10;;;13.63;;
4309;SDS011;2168;53.576;9.980;2022-10-31T15:21:09;24.03;;;13.80;;
4309;SDS011;2168;53.576;9.980;2022-10-31T15:23:35;26.33;;;13.60;;
4309;SDS011;2168;53.576;9.980;2022-10-31T15:26:00;20.23;;;12.40;;
4309;SDS011;2168;53.576;9.980;2022-10-31T15:28:26;28.27;;;14.23;;
4309;SDS011;2168;53.576;9.980;2022-10-31T15:30:55;21.47;;;13.10;;
4309;SDS011;2168;53.576;9.980;2022-10-31T15:33:23;21.57;;;13.97;;
4309;SDS011;2168;53.576;9.980;2022-10-31T15:35:55;24.10;;;15.07;;
4309;SDS011;2168;53.576;9.980;2022-10-31T15:38:20;21.90;;;13.27;;
4309;SDS011;2168;53.576;9.980;2022-10-31T15:40:56;21.17;;;12.90;;
4309;SDS011;2168;53.576;9.980;2022-10-31T15:43:22;17.63;;;13.20;;
4309;SDS011;2168;53.576;9.980;2022-10-31T15:45:47;23.53;;;14.10;;
4309;SDS011;2168;53.576;9.980;2022-10-31T15:48:15;24.00;;;14.20;;
4309;SDS011;2168;53.576;9.980;2022-10-31T15:50:48;27.97;;;16.17;;
4309;SDS011;2168;53.576;9.980;2022-10-31T15:53:23;21.10;;;14.07;;
4309;SDS011;2168;53.576;9.980;2022-10-31T15:55:52;24.53;;;15.83;;
4309;SDS011;2168;53.576;9.980;2022-10-31T15:58:18;27.13;;;15.97;;
4309;SDS011;2168;53.576;9.980;2022-10-31T16:00:43;28.47;;;16.17;;
4309;SDS011;2168;53.576;9.980;2022-10-31T16:05:46;25.83;;;15.73;;
4309;SDS011;2168;53.576;9.980;2022-10-31T16:10:50;29.83;;;17.07;;
4309;SDS011;2168;53.576;9.980;2022-10-31T16:13:15;26.67;;;16.20;;
4309;SDS011;2168;53.576;9.980;2022-10-31T16:15:52;27.93;;;15.93;;
4309;SDS011;2168;53.576;9.980;2022-10-31T16:18:19;28.13;;;16.47;;
4309;SDS011;2168;53.576;9.980;2022-10-31T16:20:48;31.73;;;17.10;;
4309;SDS011;2168;53.576;9.980;2022-10-31T16:23:16;27.73;;;14.40;;
4309;SDS011;2168;53.576;9.980;2022-10-31T16:25:42;27.43;;;13.73;;
4309;SDS011;2168;53.576;9.980;2022-10-31T16:28:14;26.20;;;13.67;;
4309;SDS011;2168;53.576;9.980;2022-10-31T16:30:41;21.57;;;13.93;;
4309;SDS011;2168;53.576;9.980;2022-10-31T16:33:24;26.53;;;13.63;;
4309;SDS011;2168;53.576;9.980;2022-10-31T16:35:50;24.00;;;13.83;;
4309;SDS011;2168;53.576;9.980;2022-10-31T16:38:15;21.47;;;13.53;;
4309;SDS011;2168;53.576;9.980;2022-10-31T16:40:40;24.77;;;15.03;;